Time;durP1;ratioP1;P1;durP2;ratioP2;P2;SDS_P1;SDS_P2;PMS_P1;PMS_P2;Temp;Humidity;BMP_temperature;BMP_pressure;BME280_temperature;BME280_humidity;BME280_pressure;Samples;Min_cycle;Max_cycle;Signal;HPM_P1;HPM_P2
2022/07/09 00:01:43;;;;;;;0.20;0.20;;;;;;;;;;4965285;28;20046;-91
2022/07/09 00:04:09;;;;;;;0.00;0.00;;;;;;;;;;4978573;28;20035;-89
2022/07/09 00:06:37;;;;;;;0.10;0.10;;;;;;;;;;4982978;28;20034;-90
2022/07/09 00:09:03;;;;;;;0.10;0.10;;;;;;;;;;4988935;28;20045;-91
2022/07/09 00:11:29;;;;;;;0.10;0.10;;;;;;;;;;4974191;28;20100;-89
2022/07/09 00:13:55;;;;;;;0.10;0.10;;;;;;;;;;4988943;28;20510;-90
2022/07/09 00:16:21;;;;;;;0.10;0.10;;;;;;;;;;4989383;28;20415;-90
2022/07/09 00:18:49;;;;;;;0.15;0.15;;;;;;;;;;4990029;28;20443;-91
2022/07/09 00:21:15;;;;;;;0.00;0.00;;;;;;;;;;4990147;28;20095;-91
2022/07/09 00:23:41;;;;;;;0.20;0.20;;;;;;;;;;4976316;28;20038;-90
2022/07/09 00:26:11;;;;;;;0.05;0.05;;;;;;;;;;4985589;28;20589;-91
2022/07/09 00:28:37;;;;;;;0.10;0.10;;;;;;;;;;4969567;28;20054;-91
2022/07/09 00:31:03;;;;;;;0.00;0.00;;;;;;;;;;4973100;28;20034;-91
2022/07/09 00:33:29;;;;;;;0.10;0.10;;;;;;;;;;4968849;28;20038;-89
2022/07/09 00:35:55;;;;;;;0.00;0.00;;;;;;;;;;4990733;28;20067;-90
2022/07/09 00:38:22;;;;;;;0.10;0.10;;;;;;;;;;4988199;28;20096;-90
2022/07/09 00:40:50;;;;;;;0.10;0.10;;;;;;;;;;4987866;28;20037;-91
2022/07/09 00:43:21;;;;;;;0.20;0.20;;;;;;;;;;4988265;28;20042;-90
2022/07/09 00:45:48;;;;;;;0.10;0.10;;;;;;;;;;4979732;28;20042;-90
2022/07/09 00:48:16;;;;;;;0.00;0.00;;;;;;;;;;4984212;28;20073;-90
2022/07/09 00:50:43;;;;;;;0.05;0.05;;;;;;;;;;4980600;28;20042;-91
2022/07/09 00:53:10;;;;;;;0.00;0.00;;;;;;;;;;4983370;28;20046;-91
2022/07/09 00:55:38;;;;;;;0.00;0.00;;;;;;;;;;4984154;28;20046;-89
2022/07/09 00:58:08;;;;;;;0.08;0.08;;;;;;;;;;5009149;28;20101;-89
2022/07/09 01:00:35;;;;;;;0.00;0.00;;;;;;;;;;5016676;28;20046;-89
2022/07/09 01:03:01;;;;;;;0.00;0.00;;;;;;;;;;5022405;28;20041;-91
2022/07/09 01:05:27;;;;;;;0.00;0.00;;;;;;;;;;5020638;28;20046;-91
2022/07/09 01:07:55;;;;;;;0.10;0.10;;;;;;;;;;5006456;28;20124;-91
2022/07/09 01:10:21;;;;;;;0.10;0.10;;;;;;;;;;5037930;28;20479;-90
2022/07/09 01:12:47;;;;;;;0.10;0.10;;;;;;;;;;5026520;28;20498;-91
2022/07/09 01:15:13;;;;;;;0.03;0.03;;;;;;;;;;5026732;28;20048;-89
2022/07/09 01:17:43;;;;;;;0.10;0.10;;;;;;;;;;5014470;28;20389;-91
2022/07/09 01:20:09;;;;;;;0.00;0.00;;;;;;;;;;5010262;28;20116;-91
2022/07/09 01:22:47;;;;;;;0.10;0.10;;;;;;;;;;5017085;28;20503;-89
2022/07/09 01:25:16;;;;;;;0.17;0.17;;;;;;;;;;5025214;28;20064;-90
2022/07/09 01:27:42;;;;;;;0.93;0.90;;;;;;;;;;5025386;28;20041;-91
2022/07/09 01:30:08;;;;;;;0.10;0.10;;;;;;;;;;5023690;28;20049;-90
2022/07/09 01:32:35;;;;;;;0.10;0.10;;;;;;;;;;5024916;28;20052;-90
2022/07/09 01:35:03;;;;;;;0.00;0.00;;;;;;;;;;5020543;28;20041;-91
2022/07/09 01:37:29;;;;;;;0.10;0.10;;;;;;;;;;5015133;28;20041;-91
2022/07/09 01:39:55;;;;;;;0.20;0.20;;;;;;;;;;5014564;28;20082;-91
2022/07/09 01:42:21;;;;;;;0.15;0.15;;;;;;;;;;5040350;28;20041;-89
2022/07/09 01:44:50;;;;;;;0.10;0.10;;;;;;;;;;5022228;28;20483;-90
2022/07/09 01:47:16;;;;;;;0.10;0.10;;;;;;;;;;4989565;28;20041;-88
2022/07/09 01:49:42;;;;;;;0.00;0.00;;;;;;;;;;4990712;28;20495;-92
2022/07/09 01:52:09;;;;;;;0.05;0.05;;;;;;;;;;5007406;28;20399;-91
2022/07/09 01:54:36;;;;;;;0.10;0.10;;;;;;;;;;5024678;28;20060;-91
2022/07/09 01:57:02;;;;;;;0.00;0.00;;;;;;;;;;5021931;28;20072;-90
2022/07/09 01:59:28;;;;;;;0.10;0.10;;;;;;;;;;4990283;28;20088;-92
2022/07/09 02:01:54;;;;;;;0.00;0.00;;;;;;;;;;5018562;28;20045;-92
2022/07/09 02:04:20;;;;;;;0.00;0.00;;;;;;;;;;5018178;28;20045;-91
2022/07/09 02:06:47;;;;;;;0.10;0.10;;;;;;;;;;5024404;28;20395;-93
2022/07/09 02:09:13;;;;;;;0.10;0.10;;;;;;;;;;5014696;28;20038;-92
2022/07/09 02:11:40;;;;;;;0.00;0.00;;;;;;;;;;5021315;28;20034;-89
2022/07/09 02:14:06;;;;;;;0.10;0.10;;;;;;;;;;5021819;28;20104;-90
2022/07/09 02:16:32;;;;;;;0.10;0.10;;;;;;;;;;5020407;28;20045;-90
2022/07/09 02:18:58;;;;;;;0.10;0.10;;;;;;;;;;5020275;28;20044;-90
2022/07/09 02:21:24;;;;;;;0.10;0.10;;;;;;;;;;5034016;28;20045;-91
2022/07/09 02:23:50;;;;;;;0.00;0.00;;;;;;;;;;5023262;28;20056;-91
2022/07/09 02:26:16;;;;;;;0.10;0.10;;;;;;;;;;5039714;28;20037;-91
2022/07/09 02:28:42;;;;;;;0.08;0.08;;;;;;;;;;5023492;28;20041;-90
2022/07/09 02:31:09;;;;;;;0.10;0.10;;;;;;;;;;5022891;28;20105;-93
2022/07/09 02:33:41;;;;;;;0.10;0.10;;;;;;;;;;5021563;28;20042;-93
2022/07/09 02:36:07;;;;;;;0.00;0.00;;;;;;;;;;5022076;28;20549;-91
2022/07/09 02:38:33;;;;;;;0.00;0.00;;;;;;;;;;5010236;28;20034;-91
2022/07/09 02:41:01;;;;;;;0.00;0.00;;;;;;;;;;5024165;28;20052;-92
2022/07/09 02:43:27;;;;;;;0.00;0.00;;;;;;;;;;5024965;28;20080;-92
2022/07/09 02:45:55;;;;;;;0.08;0.08;;;;;;;;;;5017596;28;20041;-92
2022/07/09 02:48:22;;;;;;;0.00;0.00;;;;;;;;;;5009865;28;20172;-90
2022/07/09 02:50:49;;;;;;;0.10;0.10;;;;;;;;;;5016557;28;20048;-90
2022/07/09 02:53:16;;;;;;;0.10;0.10;;;;;;;;;;4999334;28;20476;-91
2022/07/09 02:55:42;;;;;;;0.00;0.00;;;;;;;;;;5021034;28;20041;-90
2022/07/09 02:58:08;;;;;;;0.00;0.00;;;;;;;;;;4969749;28;1244364;-91
2022/07/09 03:00:34;;;;;;;0.00;0.00;;;;;;;;;;5011022;28;20046;-91
2022/07/09 03:03:01;;;;;;;0.00;0.00;;;;;;;;;;5022468;28;20037;-91
2022/07/09 03:05:27;;;;;;;0.10;0.10;;;;;;;;;;5019003;28;20042;-91
2022/07/09 03:07:53;;;;;;;0.10;0.10;;;;;;;;;;5005234;28;20033;-91
2022/07/09 03:10:19;;;;;;;0.10;0.10;;;;;;;;;;5016403;28;20096;-91
2022/07/09 03:12:46;;;;;;;0.10;0.10;;;;;;;;;;5030801;28;20049;-90
2022/07/09 03:15:14;;;;;;;0.03;0.03;;;;;;;;;;5018650;28;20038;-91
2022/07/09 03:17:40;;;;;;;0.00;0.00;;;;;;;;;;5007268;28;20056;-90
2022/07/09 03:20:07;;;;;;;0.10;0.10;;;;;;;;;;5027310;28;20128;-91
2022/07/09 03:22:33;;;;;;;0.08;0.08;;;;;;;;;;5018760;28;20052;-90
2022/07/09 03:24:59;;;;;;;0.10;0.10;;;;;;;;;;5018960;28;20041;-91
2022/07/09 03:27:25;;;;;;;0.10;0.10;;;;;;;;;;5026984;28;20132;-92
2022/07/09 03:29:51;;;;;;;0.05;0.05;;;;;;;;;;5023495;28;20365;-91
2022/07/09 03:32:17;;;;;;;0.03;0.03;;;;;;;;;;5005514;28;20080;-92
2022/07/09 03:34:43;;;;;;;0.10;0.10;;;;;;;;;;5001407;28;20041;-93
2022/07/09 03:37:09;;;;;;;0.10;0.10;;;;;;;;;;5002450;28;20526;-91
2022/07/09 03:39:35;;;;;;;0.10;0.10;;;;;;;;;;5022045;28;20110;-91
2022/07/09 03:42:01;;;;;;;0.00;0.00;;;;;;;;;;5023006;28;20049;-91
2022/07/09 03:44:27;;;;;;;0.10;0.10;;;;;;;;;;5022772;28;20041;-92
2022/07/09 03:46:53;;;;;;;0.00;0.00;;;;;;;;;;5019980;28;20129;-91
2022/07/09 03:49:20;;;;;;;0.05;0.05;;;;;;;;;;5003413;28;20073;-91
2022/07/09 03:51:46;;;;;;;0.10;0.10;;;;;;;;;;5008041;28;20037;-91
2022/07/09 03:54:12;;;;;;;0.10;0.10;;;;;;;;;;5007959;28;20041;-92
2022/07/09 03:56:38;;;;;;;0.10;0.10;;;;;;;;;;5019155;28;20049;-92
2022/07/09 03:59:06;;;;;;;0.10;0.10;;;;;;;;;;5015963;28;20045;-92
2022/07/09 04:01:32;;;;;;;0.00;0.00;;;;;;;;;;5019625;28;20046;-92
2022/07/09 04:03:58;;;;;;;0.00;0.00;;;;;;;;;;5022707;28;20048;-92
2022/07/09 04:06:24;;;;;;;0.08;0.08;;;;;;;;;;5024808;28;20045;-91
2022/07/09 04:08:51;;;;;;;0.10;0.10;;;;;;;;;;5022973;28;20041;-91
2022/07/09 04:11:17;;;;;;;0.05;0.05;;;;;;;;;;5019878;28;20034;-91
2022/07/09 04:13:44;;;;;;;0.00;0.00;;;;;;;;;;5005161;28;20124;-91
2022/07/09 04:16:10;;;;;;;0.00;0.00;;;;;;;;;;5018863;28;20088;-91
2022/07/09 04:18:36;;;;;;;0.05;0.05;;;;;;;;;;5012420;28;20056;-91
2022/07/09 04:21:02;;;;;;;0.00;0.00;;;;;;;;;;5023626;28;20047;-90
2022/07/09 04:23:28;;;;;;;0.00;0.00;;;;;;;;;;5022853;28;20042;-92
2022/07/09 04:25:55;;;;;;;0.10;0.10;;;;;;;;;;5017649;28;20245;-91
2022/07/09 04:28:21;;;;;;;0.10;0.10;;;;;;;;;;5003827;28;20038;-92
2022/07/09 04:30:47;;;;;;;0.10;0.10;;;;;;;;;;5016748;28;20045;-91
2022/07/09 04:33:13;;;;;;;0.10;0.10;;;;;;;;;;5017093;28;20526;-90
2022/07/09 04:35:40;;;;;;;0.00;0.00;;;;;;;;;;5002896;28;20049;-91
2022/07/09 04:38:06;;;;;;;0.15;0.15;;;;;;;;;;5012463;28;20438;-91
2022/07/09 04:40:34;;;;;;;0.00;0.00;;;;;;;;;;5022216;28;20080;-91
2022/07/09 04:43:00;;;;;;;0.10;0.10;;;;;;;;;;5023410;28;20426;-91
2022/07/09 04:45:29;;;;;;;0.00;0.00;;;;;;;;;;5008727;28;20038;-91
2022/07/09 04:47:55;;;;;;;0.03;0.03;;;;;;;;;;5019908;28;20046;-92
2022/07/09 04:50:22;;;;;;;0.15;0.15;;;;;;;;;;5006506;28;20045;-92
2022/07/09 04:52:48;;;;;;;0.10;0.10;;;;;;;;;;5008581;28;20569;-92
2022/07/09 04:55:16;;;;;;;0.00;0.00;;;;;;;;;;5027242;28;20087;-92
2022/07/09 04:57:43;;;;;;;0.08;0.08;;;;;;;;;;5012216;28;20052;-91
2022/07/09 05:00:10;;;;;;;0.10;0.10;;;;;;;;;;5020081;28;20519;-91
2022/07/09 05:02:39;;;;;;;0.00;0.00;;;;;;;;;;5035568;28;20033;-91
2022/07/09 05:05:06;;;;;;;0.10;0.10;;;;;;;;;;5006663;28;20049;-92
2022/07/09 05:07:33;;;;;;;0.10;0.10;;;;;;;;;;5009097;28;20038;-92
2022/07/09 05:10:02;;;;;;;0.00;0.00;;;;;;;;;;5025059;28;20049;-91
2022/07/09 05:12:29;;;;;;;0.00;0.00;;;;;;;;;;5015876;28;20084;-91
2022/07/09 05:14:56;;;;;;;0.20;0.20;;;;;;;;;;5017634;28;20105;-91
2022/07/09 05:17:22;;;;;;;0.10;0.10;;;;;;;;;;5025873;28;20037;-91
2022/07/09 05:19:48;;;;;;;0.10;0.10;;;;;;;;;;5010702;28;20049;-91
2022/07/09 05:22:14;;;;;;;0.17;0.17;;;;;;;;;;5021922;28;20452;-91
2022/07/09 05:24:41;;;;;;;0.10;0.10;;;;;;;;;;5035687;28;20050;-91
2022/07/09 05:27:09;;;;;;;0.00;0.00;;;;;;;;;;5023947;28;20033;-92
2022/07/09 05:29:35;;;;;;;0.10;0.10;;;;;;;;;;5022610;28;20048;-91
2022/07/09 05:32:01;;;;;;;0.10;0.10;;;;;;;;;;5025459;28;20044;-91
2022/07/09 05:34:28;;;;;;;0.00;0.00;;;;;;;;;;5023957;28;20064;-89
2022/07/09 05:36:55;;;;;;;0.00;0.00;;;;;;;;;;5038181;28;20050;-91
2022/07/09 05:39:21;;;;;;;0.00;0.00;;;;;;;;;;5019685;28;20518;-91
2022/07/09 05:41:48;;;;;;;0.05;0.05;;;;;;;;;;5006453;28;20101;-91
2022/07/09 05:44:14;;;;;;;0.10;0.10;;;;;;;;;;5018403;28;20041;-91
2022/07/09 05:46:41;;;;;;;0.00;0.00;;;;;;;;;;4988502;28;20045;-91
2022/07/09 05:49:07;;;;;;;0.08;0.08;;;;;;;;;;5025477;28;20033;-91
2022/07/09 05:51:33;;;;;;;0.03;0.03;;;;;;;;;;5029800;28;20100;-91
2022/07/09 05:53:59;;;;;;;0.00;0.00;;;;;;;;;;5026873;28;20045;-91
2022/07/09 05:56:25;;;;;;;0.00;0.00;;;;;;;;;;5009648;28;20041;-91
2022/07/09 05:58:52;;;;;;;0.08;0.08;;;;;;;;;;5028384;28;20101;-90
2022/07/09 06:01:18;;;;;;;0.00;0.00;;;;;;;;;;5012372;28;20462;-91
2022/07/09 06:03:44;;;;;;;0.10;0.10;;;;;;;;;;5027992;28;20045;-91
2022/07/09 06:06:10;;;;;;;0.10;0.10;;;;;;;;;;5027828;28;20038;-92
2022/07/09 06:08:37;;;;;;;0.10;0.10;;;;;;;;;;5013809;28;20506;-93
2022/07/09 06:11:03;;;;;;;0.10;0.10;;;;;;;;;;5020690;28;20037;-93
2022/07/09 06:13:29;;;;;;;0.00;0.00;;;;;;;;;;5012352;28;20038;-93
2022/07/09 06:15:55;;;;;;;0.00;0.00;;;;;;;;;;5007137;28;20564;-92
2022/07/09 06:18:22;;;;;;;0.00;0.00;;;;;;;;;;5009883;28;20029;-92
2022/07/09 06:20:48;;;;;;;0.05;0.05;;;;;;;;;;5012708;28;20042;-92
2022/07/09 06:23:14;;;;;;;0.10;0.10;;;;;;;;;;5029471;28;20124;-92
2022/07/09 06:25:43;;;;;;;0.10;0.10;;;;;;;;;;5028705;28;20049;-92
2022/07/09 06:28:10;;;;;;;0.10;0.10;;;;;;;;;;5014096;28;20035;-91
2022/07/09 06:30:36;;;;;;;0.10;0.10;;;;;;;;;;5025452;28;20100;-91
2022/07/09 06:33:02;;;;;;;0.10;0.10;;;;;;;;;;5028484;28;20045;-92
2022/07/09 06:35:28;;;;;;;0.05;0.05;;;;;;;;;;5045507;28;20068;-91
2022/07/09 06:37:54;;;;;;;0.10;0.10;;;;;;;;;;5045714;28;20038;-91
2022/07/09 06:40:20;;;;;;;0.00;0.00;;;;;;;;;;5024916;28;20049;-91
2022/07/09 06:42:46;;;;;;;0.10;0.10;;;;;;;;;;5021493;28;20112;-92
2022/07/09 06:45:14;;;;;;;0.10;0.10;;;;;;;;;;5004577;28;20046;-92
2022/07/09 06:47:40;;;;;;;0.00;0.00;;;;;;;;;;5017958;28;20033;-92
2022/07/09 06:50:07;;;;;;;0.08;0.08;;;;;;;;;;5026021;28;20045;-92
2022/07/09 06:52:33;;;;;;;0.10;0.10;;;;;;;;;;5043856;28;20041;-90
2022/07/09 06:54:59;;;;;;;0.00;0.00;;;;;;;;;;5011087;28;20037;-92
2022/07/09 06:57:26;;;;;;;0.00;0.00;;;;;;;;;;5017622;28;20049;-93
2022/07/09 06:59:52;;;;;;;0.00;0.00;;;;;;;;;;5016675;28;20060;-90
2022/07/09 07:02:18;;;;;;;0.10;0.10;;;;;;;;;;5025588;28;20033;-93
2022/07/09 07:04:45;;;;;;;0.10;0.10;;;;;;;;;;5043471;28;20469;-91
2022/07/09 07:07:11;;;;;;;0.00;0.00;;;;;;;;;;5019822;28;20069;-92
2022/07/09 07:09:37;;;;;;;0.10;0.10;;;;;;;;;;5025275;28;20053;-93
2022/07/09 07:12:22;;;;;;;0.00;0.00;;;;;;;;;;5018897;28;20049;-94
2022/07/09 07:14:48;;;;;;;0.10;0.10;;;;;;;;;;5043029;28;20033;-93
2022/07/09 07:17:14;;;;;;;0.00;0.00;;;;;;;;;;5023595;28;20549;-92
2022/07/09 07:19:41;;;;;;;0.03;0.03;;;;;;;;;;5027631;28;20125;-93
2022/07/09 07:22:07;;;;;;;0.10;0.10;;;;;;;;;;5023649;28;20044;-92
2022/07/09 07:24:34;;;;;;;0.10;0.10;;;;;;;;;;5006587;28;20042;-92
2022/07/09 07:27:00;;;;;;;0.00;0.00;;;;;;;;;;5001243;28;20044;-94
2022/07/09 07:29:27;;;;;;;0.10;0.10;;;;;;;;;;5015429;28;20049;-91
2022/07/09 07:31:53;;;;;;;0.03;0.03;;;;;;;;;;5009032;28;20132;-91
2022/07/09 07:34:22;;;;;;;0.00;0.00;;;;;;;;;;5005765;28;20069;-92
2022/07/09 07:36:49;;;;;;;0.08;0.08;;;;;;;;;;5020447;28;20052;-92
2022/07/09 07:39:15;;;;;;;0.10;0.10;;;;;;;;;;5019422;28;20061;-92
2022/07/09 07:41:41;;;;;;;0.00;0.00;;;;;;;;;;5003949;28;20165;-91
2022/07/09 07:44:08;;;;;;;0.00;0.00;;;;;;;;;;5041071;28;20049;-91
2022/07/09 07:46:35;;;;;;;0.10;0.10;;;;;;;;;;5027831;28;20060;-92
2022/07/09 07:49:03;;;;;;;0.00;0.00;;;;;;;;;;5025936;28;20044;-91
2022/07/09 07:51:52;;;;;;;0.10;0.10;;;;;;;;;;5022450;28;20042;-91
2022/07/09 07:54:18;;;;;;;0.05;0.05;;;;;;;;;;5017959;28;20030;-91
2022/07/09 07:56:44;;;;;;;0.10;0.10;;;;;;;;;;5033866;28;20033;-92
2022/07/09 07:59:17;;;;;;;0.03;0.03;;;;;;;;;;5045485;28;20092;-92
2022/07/09 08:01:43;;;;;;;0.00;0.00;;;;;;;;;;5042174;28;20525;-91
2022/07/09 08:04:10;;;;;;;0.00;0.00;;;;;;;;;;5043993;28;20045;-91
2022/07/09 08:06:38;;;;;;;0.00;0.00;;;;;;;;;;5038439;28;20064;-94
2022/07/09 08:09:04;;;;;;;0.00;0.00;;;;;;;;;;5015487;28;20126;-90
2022/07/09 08:11:30;;;;;;;0.10;0.10;;;;;;;;;;5013190;28;20040;-90
2022/07/09 08:13:56;;;;;;;0.10;0.10;;;;;;;;;;5005728;28;20096;-89
2022/07/09 08:16:22;;;;;;;0.10;0.10;;;;;;;;;;5024127;28;20550;-89
2022/07/09 08:18:48;;;;;;;0.08;0.08;;;;;;;;;;5022222;28;20068;-89
2022/07/09 08:21:15;;;;;;;0.10;0.10;;;;;;;;;;5009509;28;20446;-89
2022/07/09 08:23:54;;;;;;;0.00;0.00;;;;;;;;;;5009272;28;20038;-88
2022/07/09 08:26:21;;;;;;;0.00;0.00;;;;;;;;;;5019439;28;20069;-89
2022/07/09 08:28:47;;;;;;;0.10;0.10;;;;;;;;;;5025503;28;20041;-89
2022/07/09 08:31:14;;;;;;;0.00;0.00;;;;;;;;;;5019379;28;20038;-88
2022/07/09 08:33:40;;;;;;;0.00;0.00;;;;;;;;;;5025396;28;20045;-89
2022/07/09 08:36:09;;;;;;;0.00;0.00;;;;;;;;;;5011445;28;20124;-90
2022/07/09 08:38:35;;;;;;;0.20;0.20;;;;;;;;;;5021351;28;20045;-90
2022/07/09 08:41:03;;;;;;;0.00;0.00;;;;;;;;;;5039242;28;20038;-90
2022/07/09 08:43:32;;;;;;;0.05;0.05;;;;;;;;;;5004448;28;20085;-89
2022/07/09 08:45:59;;;;;;;0.10;0.10;;;;;;;;;;5024319;28;20037;-90
2022/07/09 08:48:25;;;;;;;0.30;0.30;;;;;;;;;;5023049;28;20507;-89
2022/07/09 08:50:52;;;;;;;0.00;0.00;;;;;;;;;;5022447;28;20044;-89
2022/07/09 08:53:18;;;;;;;0.00;0.00;;;;;;;;;;5019509;28;20038;-90
2022/07/09 08:55:48;;;;;;;0.13;0.13;;;;;;;;;;5020242;28;20037;-90
2022/07/09 08:58:14;;;;;;;0.03;0.03;;;;;;;;;;5018006;28;20096;-90
2022/07/09 09:00:41;;;;;;;0.00;0.00;;;;;;;;;;5006332;28;20054;-88
2022/07/09 09:03:07;;;;;;;0.00;0.00;;;;;;;;;;5021540;28;20503;-88
2022/07/09 09:05:34;;;;;;;0.00;0.00;;;;;;;;;;5017780;28;20074;-90
2022/07/09 09:08:00;;;;;;;0.05;0.05;;;;;;;;;;5026338;28;20034;-88
2022/07/09 09:10:45;;;;;;;0.00;0.00;;;;;;;;;;5018379;28;20038;-89
2022/07/09 09:13:14;;;;;;;0.03;0.03;;;;;;;;;;5023318;28;20033;-88
2022/07/09 09:15:40;;;;;;;0.10;0.10;;;;;;;;;;5024853;28;20042;-88
2022/07/09 09:18:06;;;;;;;0.08;0.08;;;;;;;;;;5015906;28;20037;-88
2022/07/09 09:20:32;;;;;;;0.08;0.08;;;;;;;;;;5020502;28;20064;-88
2022/07/09 09:23:02;;;;;;;0.10;0.10;;;;;;;;;;5023641;28;20072;-88
2022/07/09 09:25:28;;;;;;;0.00;0.00;;;;;;;;;;5016658;28;20060;-88
2022/07/09 09:27:55;;;;;;;0.10;0.10;;;;;;;;;;5017502;28;20116;-89
2022/07/09 09:30:22;;;;;;;0.10;0.10;;;;;;;;;;5021027;28;20038;-89
2022/07/09 09:32:55;;;;;;;0.00;0.00;;;;;;;;;;5015696;28;20041;-89
2022/07/09 09:35:34;;;;;;;0.00;0.00;;;;;;;;;;5019392;28;20097;-89
2022/07/09 09:38:01;;;;;;;0.00;0.00;;;;;;;;;;5018572;28;20120;-89
2022/07/09 09:40:27;;;;;;;0.00;0.00;;;;;;;;;;5014859;28;20085;-89
2022/07/09 09:42:53;;;;;;;0.00;0.00;;;;;;;;;;5020094;28;20049;-90
2022/07/09 09:45:19;;;;;;;0.00;0.00;;;;;;;;;;5022097;28;20045;-89
2022/07/09 09:47:50;;;;;;;0.10;0.10;;;;;;;;;;5041086;28;20111;-89
2022/07/09 09:50:24;;;;;;;0.00;0.00;;;;;;;;;;5016811;28;20038;-89
2022/07/09 09:52:51;;;;;;;0.00;0.00;;;;;;;;;;5027005;28;20084;-88
2022/07/09 09:55:18;;;;;;;0.00;0.00;;;;;;;;;;5003810;28;20049;-89
2022/07/09 09:57:44;;;;;;;0.10;0.10;;;;;;;;;;5013188;28;20104;-88
2022/07/09 10:00:15;;;;;;;0.10;0.10;;;;;;;;;;5022376;28;20044;-88
2022/07/09 10:02:46;;;;;;;0.00;0.00;;;;;;;;;;5020835;28;20045;-88
2022/07/09 10:05:13;;;;;;;0.00;0.00;;;;;;;;;;5017866;28;20038;-89
2022/07/09 10:07:40;;;;;;;0.10;0.10;;;;;;;;;;5023169;28;20017;-89
2022/07/09 10:10:07;;;;;;;0.10;0.10;;;;;;;;;;5019353;28;20040;-89
2022/07/09 10:12:34;;;;;;;0.10;0.10;;;;;;;;;;5002827;28;20052;-88
2022/07/09 10:15:01;;;;;;;0.00;0.00;;;;;;;;;;5027732;28;20041;-90
2022/07/09 10:17:27;;;;;;;0.10;0.10;;;;;;;;;;5007659;28;20068;-88
2022/07/09 10:20:04;;;;;;;0.13;0.13;;;;;;;;;;5011762;28;20058;-88
2022/07/09 10:22:43;;;;;;;0.10;0.10;;;;;;;;;;5016388;28;20049;-88
2022/07/09 10:25:10;;;;;;;0.05;0.05;;;;;;;;;;5017755;28;20049;-88
2022/07/09 10:27:44;;;;;;;0.10;0.10;;;;;;;;;;5012306;28;20116;-89
2022/07/09 10:30:36;;;;;;;0.00;0.00;;;;;;;;;;5012833;28;20120;-89
2022/07/09 10:33:34;;;;;;;0.00;0.00;;;;;;;;;;5014015;28;20081;-89
2022/07/09 10:36:09;;;;;;;0.00;0.00;;;;;;;;;;4991243;28;20041;-89
2022/07/09 10:38:38;;;;;;;0.08;0.08;;;;;;;;;;5003314;28;20072;-89
2022/07/09 10:41:05;;;;;;;0.10;0.10;;;;;;;;;;5014729;28;20096;-89
2022/07/09 10:43:46;;;;;;;0.00;0.00;;;;;;;;;;5017071;28;20048;-89
2022/07/09 10:46:13;;;;;;;0.03;0.03;;;;;;;;;;5004011;28;20042;-88
2022/07/09 10:48:39;;;;;;;0.00;0.00;;;;;;;;;;5028868;28;20092;-87
2022/07/09 10:51:05;;;;;;;0.03;0.03;;;;;;;;;;5023256;28;20448;-89
2022/07/09 10:53:31;;;;;;;0.10;0.10;;;;;;;;;;5003279;28;20411;-89
2022/07/09 10:55:59;;;;;;;0.10;0.10;;;;;;;;;;5010095;28;20045;-89
2022/07/09 10:58:25;;;;;;;0.10;0.10;;;;;;;;;;5021576;28;20124;-88
2022/07/09 11:01:10;;;;;;;0.00;0.00;;;;;;;;;;5032131;28;20499;-89
2022/07/09 11:03:36;;;;;;;0.10;0.10;;;;;;;;;;5019508;28;20095;-89
2022/07/09 11:06:08;;;;;;;0.10;0.10;;;;;;;;;;5015720;28;20048;-90
2022/07/09 11:08:35;;;;;;;0.10;0.10;;;;;;;;;;5011288;28;20045;-90
2022/07/09 11:11:03;;;;;;;0.00;0.00;;;;;;;;;;5039185;28;20041;-89
2022/07/09 11:13:29;;;;;;;0.00;0.00;;;;;;;;;;5029448;28;20102;-89
2022/07/09 11:16:02;;;;;;;0.00;0.00;;;;;;;;;;5009810;28;20046;-88
2022/07/09 11:18:28;;;;;;;0.00;0.00;;;;;;;;;;5006404;28;20069;-88
2022/07/09 11:20:55;;;;;;;0.00;0.00;;;;;;;;;;5036356;28;20048;-88
2022/07/09 11:23:21;;;;;;;0.00;0.00;;;;;;;;;;5014656;28;20065;-89
2022/07/09 11:25:47;;;;;;;0.00;0.00;;;;;;;;;;5010225;28;20088;-89
2022/07/09 11:28:20;;;;;;;0.08;0.08;;;;;;;;;;5018743;28;20042;-88
2022/07/09 11:30:46;;;;;;;0.00;0.00;;;;;;;;;;5035651;28;20509;-90
2022/07/09 11:33:16;;;;;;;0.00;0.00;;;;;;;;;;5032706;28;20044;-90
2022/07/09 11:35:44;;;;;;;0.00;0.00;;;;;;;;;;5019156;28;20072;-90
2022/07/09 11:38:13;;;;;;;0.00;0.00;;;;;;;;;;5036799;28;20076;-90
2022/07/09 11:40:40;;;;;;;0.13;0.13;;;;;;;;;;5008261;28;20057;-89
2022/07/09 11:43:16;;;;;;;0.00;0.00;;;;;;;;;;5034978;28;20046;-87
2022/07/09 11:45:51;;;;;;;0.13;0.13;;;;;;;;;;5008455;28;20132;-88
2022/07/09 11:48:21;;;;;;;0.00;0.00;;;;;;;;;;4995686;28;20139;-90
2022/07/09 11:50:47;;;;;;;0.00;0.00;;;;;;;;;;5000012;28;20108;-89
2022/07/09 11:53:19;;;;;;;0.00;0.00;;;;;;;;;;5017926;28;20430;-89
2022/07/09 11:55:57;;;;;;;0.00;0.00;;;;;;;;;;5012281;28;20046;-87
2022/07/09 11:58:23;;;;;;;0.10;0.10;;;;;;;;;;5002607;28;20451;-88
2022/07/09 12:00:50;;;;;;;0.10;0.10;;;;;;;;;;5027818;28;20045;-88
2022/07/09 12:03:24;;;;;;;0.00;0.00;;;;;;;;;;5036499;28;20038;-89
2022/07/09 12:05:51;;;;;;;0.05;0.05;;;;;;;;;;5020388;28;20045;-88
2022/07/09 12:08:26;;;;;;;0.10;0.10;;;;;;;;;;5024031;28;20120;-89
2022/07/09 12:10:52;;;;;;;0.00;0.00;;;;;;;;;;5028279;28;20034;-87
2022/07/09 12:13:18;;;;;;;0.00;0.00;;;;;;;;;;5026705;28;20037;-89
2022/07/09 12:15:44;;;;;;;0.10;0.10;;;;;;;;;;5021250;28;20135;-89
2022/07/09 12:18:10;;;;;;;0.00;0.00;;;;;;;;;;5015136;28;20500;-87
2022/07/09 12:20:36;;;;;;;0.00;0.00;;;;;;;;;;5023775;28;20406;-87
2022/07/09 12:23:02;;;;;;;0.00;0.00;;;;;;;;;;5022136;28;20046;-89
2022/07/09 12:25:28;;;;;;;0.00;0.00;;;;;;;;;;5024192;28;20041;-89
2022/07/09 12:27:55;;;;;;;0.00;0.00;;;;;;;;;;5025501;28;20545;-89
2022/07/09 12:30:21;;;;;;;0.00;0.00;;;;;;;;;;5025130;28;20044;-90
2022/07/09 12:32:47;;;;;;;0.20;0.20;;;;;;;;;;5021709;28;20060;-90
2022/07/09 12:35:15;;;;;;;0.00;0.00;;;;;;;;;;5039755;28;20073;-90
2022/07/09 12:37:41;;;;;;;0.00;0.00;;;;;;;;;;5024375;28;20052;-88
2022/07/09 12:40:10;;;;;;;0.00;0.00;;;;;;;;;;5040395;28;20041;-89
2022/07/09 12:42:36;;;;;;;0.10;0.10;;;;;;;;;;5040131;28;20054;-90
2022/07/09 12:45:04;;;;;;;0.08;0.08;;;;;;;;;;5021353;28;20077;-89
2022/07/09 12:47:30;;;;;;;0.00;0.00;;;;;;;;;;5021166;28;20041;-89
2022/07/09 12:49:56;;;;;;;0.00;0.00;;;;;;;;;;5013994;28;20041;-88
2022/07/09 12:52:22;;;;;;;0.00;0.00;;;;;;;;;;5004810;28;20037;-89
2022/07/09 12:54:48;;;;;;;0.00;0.00;;;;;;;;;;5038189;28;20097;-89
2022/07/09 12:57:15;;;;;;;0.00;0.00;;;;;;;;;;5024427;28;20045;-90
2022/07/09 12:59:42;;;;;;;0.00;0.00;;;;;;;;;;5022278;28;20042;-88
2022/07/09 13:02:08;;;;;;;0.00;0.00;;;;;;;;;;5019611;28;20041;-88
2022/07/09 13:04:34;;;;;;;0.10;0.10;;;;;;;;;;5034461;28;20073;-88
2022/07/09 13:07:02;;;;;;;0.08;0.08;;;;;;;;;;5021221;28;20034;-88
2022/07/09 13:09:28;;;;;;;0.00;0.00;;;;;;;;;;5003698;28;20092;-89
2022/07/09 13:11:55;;;;;;;0.10;0.10;;;;;;;;;;5005184;28;20107;-88
2022/07/09 13:14:21;;;;;;;0.00;0.00;;;;;;;;;;5038979;28;20037;-88
2022/07/09 13:16:47;;;;;;;0.00;0.00;;;;;;;;;;5019335;28;20034;-88
2022/07/09 13:19:13;;;;;;;0.10;0.10;;;;;;;;;;5001018;28;20052;-89
2022/07/09 13:21:39;;;;;;;0.00;0.00;;;;;;;;;;5020845;28;20434;-92
2022/07/09 13:24:05;;;;;;;0.05;0.05;;;;;;;;;;5021457;28;20045;-89
2022/07/09 13:26:32;;;;;;;0.10;0.10;;;;;;;;;;5021120;28;20095;-90
2022/07/09 13:29:11;;;;;;;0.10;0.10;;;;;;;;;;5039069;28;20152;-88
2022/07/09 13:31:37;;;;;;;0.00;0.00;;;;;;;;;;5018474;28;20145;-87
2022/07/09 13:34:03;;;;;;;0.00;0.00;;;;;;;;;;5019159;28;20073;-88
2022/07/09 13:36:29;;;;;;;0.08;0.08;;;;;;;;;;5038264;28;20033;-90
2022/07/09 13:38:57;;;;;;;0.10;0.10;;;;;;;;;;5020368;28;20041;-88
2022/07/09 13:41:23;;;;;;;0.00;0.00;;;;;;;;;;5027582;28;20050;-87
2022/07/09 13:43:49;;;;;;;0.00;0.00;;;;;;;;;;5008324;28;20056;-86
2022/07/09 13:46:15;;;;;;;0.00;0.00;;;;;;;;;;5005241;28;20125;-86
2022/07/09 13:48:41;;;;;;;0.10;0.10;;;;;;;;;;5021474;28;20044;-88
2022/07/09 13:51:07;;;;;;;0.00;0.00;;;;;;;;;;5018704;28;20038;-89
2022/07/09 13:53:33;;;;;;;0.03;0.03;;;;;;;;;;5008876;28;20041;-88
2022/07/09 13:55:59;;;;;;;0.10;0.10;;;;;;;;;;5001463;28;20151;-89
2022/07/09 13:58:25;;;;;;;0.10;0.10;;;;;;;;;;5001942;28;20073;-90
2022/07/09 14:00:52;;;;;;;0.00;0.00;;;;;;;;;;5021329;28;20155;-89
2022/07/09 14:03:19;;;;;;;0.17;0.17;;;;;;;;;;5014588;28;20769;-88
2022/07/09 14:05:45;;;;;;;0.08;0.08;;;;;;;;;;5020941;28;20057;-87
2022/07/09 14:08:11;;;;;;;0.10;0.10;;;;;;;;;;5021334;28;20411;-88
2022/07/09 14:10:37;;;;;;;0.10;0.10;;;;;;;;;;5014636;28;20073;-88
2022/07/09 14:13:04;;;;;;;0.00;0.00;;;;;;;;;;5020131;28;20499;-88
2022/07/09 14:15:31;;;;;;;0.00;0.00;;;;;;;;;;5018240;28;20487;-88
2022/07/09 14:17:57;;;;;;;0.00;0.00;;;;;;;;;;5021534;28;20086;-86
2022/07/09 14:20:26;;;;;;;0.10;0.10;;;;;;;;;;5039077;28;20376;-87
2022/07/09 14:22:52;;;;;;;0.00;0.00;;;;;;;;;;5010243;28;20076;-88
2022/07/09 14:25:18;;;;;;;0.00;0.00;;;;;;;;;;5018958;28;20045;-87
2022/07/09 14:27:44;;;;;;;0.10;0.10;;;;;;;;;;5010360;28;20123;-88
2022/07/09 14:30:11;;;;;;;0.10;0.10;;;;;;;;;;5018732;28;20433;-88
2022/07/09 14:32:37;;;;;;;0.00;0.00;;;;;;;;;;5013761;28;20069;-88
2022/07/09 14:35:03;;;;;;;0.10;0.10;;;;;;;;;;5019022;28;20048;-88
2022/07/09 14:37:29;;;;;;;0.10;0.10;;;;;;;;;;5021931;28;20045;-88
2022/07/09 14:39:55;;;;;;;0.00;0.00;;;;;;;;;;5017134;28;20042;-88
2022/07/09 14:42:22;;;;;;;0.00;0.00;;;;;;;;;;5014551;28;20041;-88
2022/07/09 14:44:50;;;;;;;0.00;0.00;;;;;;;;;;5020836;28;20050;-89